sensor_id;sensor_type;location;lat;lon;timestamp;pressure;altitude;pressure_sealevel;temperature;humidity
61128;BME280;47013;42.664;23.242;2022-09-21T00:01:42;94173.03;;;9.39;70.87
61128;BME280;47013;42.664;23.242;2022-09-21T00:04:07;94163.34;;;9.41;71.00
61128;BME280;47013;42.664;23.242;2022-09-21T00:06:33;94168.75;;;9.34;71.25
61128;BME280;47013;42.664;23.242;2022-09-21T00:08:58;94166.47;;;9.29;70.65
61128;BME280;47013;42.664;23.242;2022-09-21T00:11:24;94163.00;;;9.29;70.83
61128;BME280;47013;42.664;23.242;2022-09-21T00:13:55;94170.34;;;9.28;69.82
61128;BME280;47013;42.664;23.242;2022-09-21T00:16:21;94172.66;;;9.26;70.17
61128;BME280;47013;42.664;23.242;2022-09-21T00:18:47;94168.81;;;9.16;70.76
61128;BME280;47013;42.664;23.242;2022-09-21T00:21:13;94165.34;;;9.12;70.53
61128;BME280;47013;42.664;23.242;2022-09-21T00:23:39;94168.84;;;9.02;70.66
61128;BME280;47013;42.664;23.242;2022-09-21T00:26:06;94161.13;;;9.01;71.05
61128;BME280;47013;42.664;23.242;2022-09-21T00:28:31;94163.44;;;9.02;70.87
61128;BME280;47013;42.664;23.242;2022-09-21T00:31:00;94170.78;;;9.05;70.56
61128;BME280;47013;42.664;23.242;2022-09-21T00:33:25;94163.06;;;9.00;70.66
61128;BME280;47013;42.664;23.242;2022-09-21T00:35:50;94162.66;;;9.05;70.64
61128;BME280;47013;42.664;23.242;2022-09-21T00:38:15;94158.41;;;9.08;70.25
61128;BME280;47013;42.664;23.242;2022-09-21T00:40:40;94163.44;;;9.06;70.76
61128;BME280;47013;42.664;23.242;2022-09-21T00:43:24;94156.47;;;9.08;70.26
61128;BME280;47013;42.664;23.242;2022-09-21T00:45:49;94160.72;;;9.09;70.18
61128;BME280;47013;42.664;23.242;2022-09-21T00:48:19;94162.28;;;9.03;69.27
61128;BME280;47013;42.664;23.242;2022-09-21T00:50:45;94159.56;;;9.03;69.19
61128;BME280;47013;42.664;23.242;2022-09-21T00:53:13;94163.06;;;8.97;69.14
61128;BME280;47013;42.664;23.242;2022-09-21T00:55:41;94159.97;;;8.95;68.26
61128;BME280;47013;42.664;23.242;2022-09-21T00:58:08;94152.22;;;8.97;68.29
61128;BME280;47013;42.664;23.242;2022-09-21T01:00:35;94147.22;;;8.99;69.55
61128;BME280;47013;42.664;23.242;2022-09-21T01:03:01;94146.44;;;8.98;69.36
61128;BME280;47013;42.664;23.242;2022-09-21T01:05:27;94157.25;;;8.95;69.30
61128;BME280;47013;42.664;23.242;2022-09-21T01:07:52;94157.66;;;8.93;68.71
61128;BME280;47013;42.664;23.242;2022-09-21T01:10:19;94149.94;;;8.92;68.65
61128;BME280;47013;42.664;23.242;2022-09-21T01:13:06;94151.88;;;8.91;68.81
61128;BME280;47013;42.664;23.242;2022-09-21T01:15:44;94150.31;;;8.83;70.07
61128;BME280;47013;42.664;23.242;2022-09-21T01:25:58;94152.63;;;8.84;71.54
61128;BME280;47013;42.664;23.242;2022-09-21T01:30:59;94143.78;;;8.88;71.45
61128;BME280;47013;42.664;23.242;2022-09-21T01:33:28;94141.06;;;8.84;71.31
61128;BME280;47013;42.664;23.242;2022-09-21T01:35:57;94141.84;;;8.77;71.97
61128;BME280;47013;42.664;23.242;2022-09-21T01:38:25;94135.66;;;8.77;71.90
61128;BME280;47013;42.664;23.242;2022-09-21T01:40:53;94139.16;;;8.74;71.70
61128;BME280;47013;42.664;23.242;2022-09-21T01:43:22;94137.97;;;8.71;72.21
61128;BME280;47013;42.664;23.242;2022-09-21T01:45:49;94133.38;;;8.65;72.60
61128;BME280;47013;42.664;23.242;2022-09-21T01:48:16;94136.47;;;8.63;72.81
61128;BME280;47013;42.664;23.242;2022-09-21T01:50:43;94133.78;;;8.60;72.25
61128;BME280;47013;42.664;23.242;2022-09-21T01:53:12;94131.81;;;8.53;72.10
61128;BME280;47013;42.664;23.242;2022-09-21T01:55:40;94134.53;;;8.39;72.14
61128;BME280;47013;42.664;23.242;2022-09-21T01:58:14;94132.94;;;8.31;72.93
61128;BME280;47013;42.664;23.242;2022-09-21T02:00:43;94131.41;;;8.33;73.26
61128;BME280;47013;42.664;23.242;2022-09-21T02:05:54;94127.94;;;8.25;72.82
61128;BME280;47013;42.664;23.242;2022-09-21T02:08:20;94136.81;;;8.29;72.34
61128;BME280;47013;42.664;23.242;2022-09-21T02:10:49;94133.34;;;8.33;71.67
61128;BME280;47013;42.664;23.242;2022-09-21T02:13:15;94131.41;;;8.29;71.14
61128;BME280;47013;42.664;23.242;2022-09-21T02:20:56;94136.47;;;8.42;70.29
61128;BME280;47013;42.664;23.242;2022-09-21T02:23:25;94143.03;;;8.48;70.20
61128;BME280;47013;42.664;23.242;2022-09-21T02:26:03;94141.88;;;8.49;69.98
61128;BME280;47013;42.664;23.242;2022-09-21T02:31:00;94149.56;;;8.57;70.41
61128;BME280;47013;42.664;23.242;2022-09-21T02:33:31;94148.03;;;8.64;70.16
61128;BME280;47013;42.664;23.242;2022-09-21T02:36:03;94149.59;;;8.65;70.02
61128;BME280;47013;42.664;23.242;2022-09-21T02:38:34;94148.81;;;8.68;70.68
61128;BME280;47013;42.664;23.242;2022-09-21T02:41:04;94145.72;;;8.62;70.70
61128;BME280;47013;42.664;23.242;2022-09-21T02:43:33;94137.59;;;8.58;70.53
61128;BME280;47013;42.664;23.242;2022-09-21T02:46:09;94140.31;;;8.58;71.04
61128;BME280;47013;42.664;23.242;2022-09-21T02:48:40;94137.22;;;8.56;71.23
61128;BME280;47013;42.664;23.242;2022-09-21T02:51:14;94143.78;;;8.52;71.41
61128;BME280;47013;42.664;23.242;2022-09-21T02:53:41;94142.25;;;8.51;71.55
61128;BME280;47013;42.664;23.242;2022-09-21T02:56:08;94146.13;;;8.46;71.14
61128;BME280;47013;42.664;23.242;2022-09-21T02:58:39;94148.41;;;8.44;71.44
61128;BME280;47013;42.664;23.242;2022-09-21T03:01:06;94146.47;;;8.31;72.22
61128;BME280;47013;42.664;23.242;2022-09-21T03:03:34;94146.06;;;8.25;72.51
61128;BME280;47013;42.664;23.242;2022-09-21T03:05:59;94148.78;;;8.28;71.61
61128;BME280;47013;42.664;23.242;2022-09-21T03:08:26;94148.78;;;8.32;72.16
61128;BME280;47013;42.664;23.242;2022-09-21T03:10:51;94149.53;;;8.33;71.93
61128;BME280;47013;42.664;23.242;2022-09-21T03:13:18;94154.19;;;8.28;72.27
61128;BME280;47013;42.664;23.242;2022-09-21T03:15:43;94153.78;;;8.26;71.83
61128;BME280;47013;42.664;23.242;2022-09-21T03:18:09;94149.53;;;8.15;72.77
61128;BME280;47013;42.664;23.242;2022-09-21T03:20:36;94151.47;;;8.18;73.21
61128;BME280;47013;42.664;23.242;2022-09-21T03:23:01;94147.22;;;8.17;73.79
61128;BME280;47013;42.664;23.242;2022-09-21T03:25:27;94153.00;;;8.15;73.55
61128;BME280;47013;42.664;23.242;2022-09-21T03:27:52;94154.53;;;8.06;73.44
61128;BME280;47013;42.664;23.242;2022-09-21T03:30:21;94150.69;;;7.96;73.46
61128;BME280;47013;42.664;23.242;2022-09-21T03:32:49;94161.84;;;7.91;74.04
61128;BME280;47013;42.664;23.242;2022-09-21T03:35:15;94157.97;;;7.81;74.13
61128;BME280;47013;42.664;23.242;2022-09-21T03:37:41;94155.28;;;7.88;75.00
61128;BME280;47013;42.664;23.242;2022-09-21T03:40:06;94163.00;;;7.90;74.60
61128;BME280;47013;42.664;23.242;2022-09-21T03:42:31;94159.53;;;7.93;74.43
61128;BME280;47013;42.664;23.242;2022-09-21T03:44:57;94168.00;;;7.91;74.35
61128;BME280;47013;42.664;23.242;2022-09-21T03:47:22;94166.06;;;7.92;74.35
61128;BME280;47013;42.664;23.242;2022-09-21T03:49:47;94170.72;;;7.95;73.93
61128;BME280;47013;42.664;23.242;2022-09-21T03:52:12;94171.84;;;7.94;74.41
61128;BME280;47013;42.664;23.242;2022-09-21T03:54:38;94168.38;;;7.93;74.22
61128;BME280;47013;42.664;23.242;2022-09-21T03:57:03;94167.63;;;7.93;74.49
61128;BME280;47013;42.664;23.242;2022-09-21T03:59:28;94169.94;;;7.91;74.20
61128;BME280;47013;42.664;23.242;2022-09-21T04:01:53;94169.97;;;7.94;74.43
61128;BME280;47013;42.664;23.242;2022-09-21T04:04:19;94163.75;;;7.87;74.22
61128;BME280;47013;42.664;23.242;2022-09-21T04:06:44;94160.28;;;7.86;74.52
61128;BME280;47013;42.664;23.242;2022-09-21T04:09:10;94174.16;;;7.85;74.16
61128;BME280;47013;42.664;23.242;2022-09-21T04:11:35;94169.88;;;7.69;74.65
61128;BME280;47013;42.664;23.242;2022-09-21T04:14:02;94176.84;;;7.71;74.82
61128;BME280;47013;42.664;23.242;2022-09-21T04:16:27;94176.88;;;7.81;74.95
61128;BME280;47013;42.664;23.242;2022-09-21T04:18:52;94179.16;;;7.79;74.55
61128;BME280;47013;42.664;23.242;2022-09-21T04:21:18;94171.84;;;7.83;74.13
61128;BME280;47013;42.664;23.242;2022-09-21T04:23:43;94178.06;;;7.94;75.10
61128;BME280;47013;42.664;23.242;2022-09-21T04:26:28;94175.72;;;7.89;74.78
61128;BME280;47013;42.664;23.242;2022-09-21T04:28:54;94166.47;;;7.94;75.40
61128;BME280;47013;42.664;23.242;2022-09-21T04:31:19;94174.19;;;8.03;75.36
61128;BME280;47013;42.664;23.242;2022-09-21T04:33:49;94170.72;;;8.02;75.07
61128;BME280;47013;42.664;23.242;2022-09-21T04:36:14;94176.53;;;8.08;75.10
61128;BME280;47013;42.664;23.242;2022-09-21T04:38:40;94173.84;;;8.08;74.88
61128;BME280;47013;42.664;23.242;2022-09-21T04:41:05;94174.22;;;7.95;74.99
61128;BME280;47013;42.664;23.242;2022-09-21T04:43:31;94168.38;;;7.90;75.28
61128;BME280;47013;42.664;23.242;2022-09-21T04:45:56;94178.06;;;7.94;75.28
61128;BME280;47013;42.664;23.242;2022-09-21T04:48:21;94169.16;;;7.94;75.53
61128;BME280;47013;42.664;23.242;2022-09-21T04:50:47;94170.00;;;8.09;74.89
61128;BME280;47013;42.664;23.242;2022-09-21T04:53:12;94175.00;;;8.10;74.65
61128;BME280;47013;42.664;23.242;2022-09-21T04:55:38;94172.69;;;8.26;74.34
61128;BME280;47013;42.664;23.242;2022-09-21T04:58:03;94168.47;;;8.29;73.61
61128;BME280;47013;42.664;23.242;2022-09-21T05:00:28;94175.06;;;8.39;72.97
61128;BME280;47013;42.664;23.242;2022-09-21T05:02:53;94170.44;;;8.53;73.24
61128;BME280;47013;42.664;23.242;2022-09-21T05:05:19;94178.94;;;8.63;71.92
61128;BME280;47013;42.664;23.242;2022-09-21T05:07:44;94185.88;;;8.74;72.17
61128;BME280;47013;42.664;23.242;2022-09-21T05:10:10;94183.16;;;8.81;71.04
61128;BME280;47013;42.664;23.242;2022-09-21T05:12:35;94191.28;;;8.92;70.89
61128;BME280;47013;42.664;23.242;2022-09-21T05:15:00;94190.88;;;9.04;71.49
61128;BME280;47013;42.664;23.242;2022-09-21T05:17:26;94185.44;;;9.19;70.18
61128;BME280;47013;42.664;23.242;2022-09-21T05:19:51;94184.25;;;9.30;69.74
61128;BME280;47013;42.664;23.242;2022-09-21T05:22:20;94188.09;;;9.40;69.34
61128;BME280;47013;42.664;23.242;2022-09-21T05:24:45;94176.44;;;9.50;68.91
61128;BME280;47013;42.664;23.242;2022-09-21T05:27:10;94181.81;;;9.64;67.78
61128;BME280;47013;42.664;23.242;2022-09-21T05:29:37;94184.47;;;9.79;67.97
61128;BME280;47013;42.664;23.242;2022-09-21T05:39:55;94180.00;;;10.17;67.58
61128;BME280;47013;42.664;23.242;2022-09-21T05:42:20;94186.16;;;10.28;67.01
61128;BME280;47013;42.664;23.242;2022-09-21T05:44:46;94188.03;;;10.38;68.00
61128;BME280;47013;42.664;23.242;2022-09-21T05:47:27;94183.31;;;10.49;66.82
61128;BME280;47013;42.664;23.242;2022-09-21T05:50:21;94188.69;;;10.53;66.60
61128;BME280;47013;42.664;23.242;2022-09-21T05:52:45;94187.53;;;10.54;66.81
61128;BME280;47013;42.664;23.242;2022-09-21T05:55:25;94191.38;;;10.60;65.84
61128;BME280;47013;42.664;23.242;2022-09-21T06:00:40;94185.03;;;10.22;66.25
61128;BME280;47013;42.664;23.242;2022-09-21T06:03:15;94180.63;;;10.46;66.19
61128;BME280;47013;42.664;23.242;2022-09-21T06:05:46;94185.97;;;10.56;65.66
61128;BME280;47013;42.664;23.242;2022-09-21T06:08:11;94186.38;;;10.55;65.25
61128;BME280;47013;42.664;23.242;2022-09-21T06:10:36;94191.81;;;10.55;64.46
61128;BME280;47013;42.664;23.242;2022-09-21T06:13:02;94190.91;;;10.69;63.75
61128;BME280;47013;42.664;23.242;2022-09-21T06:15:27;94200.28;;;10.60;65.42
61128;BME280;47013;42.664;23.242;2022-09-21T06:17:52;94199.81;;;10.69;63.08
61128;BME280;47013;42.664;23.242;2022-09-21T06:20:17;94198.97;;;10.76;64.30
61128;BME280;47013;42.664;23.242;2022-09-21T06:22:43;94194.69;;;10.82;64.73
61128;BME280;47013;42.664;23.242;2022-09-21T06:25:08;94196.84;;;11.01;63.94
61128;BME280;47013;42.664;23.242;2022-09-21T06:27:34;94191.28;;;11.15;62.64
61128;BME280;47013;42.664;23.242;2022-09-21T06:29:59;94196.88;;;10.98;62.72
61128;BME280;47013;42.664;23.242;2022-09-21T06:32:24;94201.72;;;11.20;62.55
61128;BME280;47013;42.664;23.242;2022-09-21T06:34:49;94200.84;;;11.27;61.24
61128;BME280;47013;42.664;23.242;2022-09-21T06:37:15;94204.34;;;11.28;61.03
61128;BME280;47013;42.664;23.242;2022-09-21T06:39:40;94206.56;;;10.99;62.19
61128;BME280;47013;42.664;23.242;2022-09-21T06:42:05;94209.19;;;11.06;62.23
61128;BME280;47013;42.664;23.242;2022-09-21T06:44:31;94207.41;;;11.33;63.78
61128;BME280;47013;42.664;23.242;2022-09-21T06:46:56;94220.03;;;11.50;62.38
61128;BME280;47013;42.664;23.242;2022-09-21T06:49:21;94219.06;;;11.68;61.50
61128;BME280;47013;42.664;23.242;2022-09-21T06:51:47;94218.63;;;11.69;61.95
61128;BME280;47013;42.664;23.242;2022-09-21T06:54:12;94215.09;;;11.76;61.21
61128;BME280;47013;42.664;23.242;2022-09-21T06:56:37;94222.41;;;11.82;61.15
61128;BME280;47013;42.664;23.242;2022-09-21T06:59:03;94220.88;;;11.78;60.67
61128;BME280;47013;42.664;23.242;2022-09-21T07:01:28;94224.34;;;11.82;61.77
61128;BME280;47013;42.664;23.242;2022-09-21T07:03:53;94232.13;;;11.80;62.04
61128;BME280;47013;42.664;23.242;2022-09-21T07:06:18;94223.56;;;11.85;62.90
61128;BME280;47013;42.664;23.242;2022-09-21T07:08:44;94234.03;;;11.83;61.92
61128;BME280;47013;42.664;23.242;2022-09-21T07:11:10;94229.09;;;11.71;61.99
61128;BME280;47013;42.664;23.242;2022-09-21T07:13:35;94229.00;;;11.81;62.26
61128;BME280;47013;42.664;23.242;2022-09-21T07:16:04;94233.97;;;11.90;63.23
61128;BME280;47013;42.664;23.242;2022-09-21T07:18:31;94235.44;;;11.98;62.74
61128;BME280;47013;42.664;23.242;2022-09-21T07:20:57;94236.69;;;11.90;62.77
61128;BME280;47013;42.664;23.242;2022-09-21T07:23:23;94227.66;;;11.97;63.37
61128;BME280;47013;42.664;23.242;2022-09-21T07:25:48;94221.44;;;12.00;63.08
61128;BME280;47013;42.664;23.242;2022-09-21T07:28:16;94233.03;;;12.04;62.96
61128;BME280;47013;42.664;23.242;2022-09-21T07:30:42;94240.41;;;12.03;62.46
61128;BME280;47013;42.664;23.242;2022-09-21T07:33:07;94237.22;;;12.08;62.57
61128;BME280;47013;42.664;23.242;2022-09-21T07:35:32;94236.34;;;12.19;62.78
61128;BME280;47013;42.664;23.242;2022-09-21T07:38:03;94246.38;;;12.25;62.45
61128;BME280;47013;42.664;23.242;2022-09-21T07:40:29;94239.47;;;12.17;61.16
61128;BME280;47013;42.664;23.242;2022-09-21T07:42:58;94237.44;;;12.25;61.84
61128;BME280;47013;42.664;23.242;2022-09-21T07:45:23;94242.06;;;12.28;60.66
61128;BME280;47013;42.664;23.242;2022-09-21T07:47:49;94237.28;;;12.35;62.27
61128;BME280;47013;42.664;23.242;2022-09-21T07:50:14;94237.91;;;12.47;61.14
61128;BME280;47013;42.664;23.242;2022-09-21T07:52:40;94231.84;;;12.62;62.13
61128;BME280;47013;42.664;23.242;2022-09-21T07:55:05;94228.94;;;12.77;62.13
61128;BME280;47013;42.664;23.242;2022-09-21T07:57:30;94230.84;;;12.80;57.89
61128;BME280;47013;42.664;23.242;2022-09-21T08:00:14;94226.88;;;12.84;58.15
61128;BME280;47013;42.664;23.242;2022-09-21T08:02:39;94226.16;;;12.80;58.24
61128;BME280;47013;42.664;23.242;2022-09-21T08:05:05;94236.69;;;12.78;58.46
61128;BME280;47013;42.664;23.242;2022-09-21T08:07:30;94224.63;;;12.79;59.03
61128;BME280;47013;42.664;23.242;2022-09-21T08:09:55;94223.22;;;12.94;58.60
61128;BME280;47013;42.664;23.242;2022-09-21T08:12:22;94233.34;;;12.94;58.02
61128;BME280;47013;42.664;23.242;2022-09-21T08:14:47;94229.97;;;13.10;58.35
61128;BME280;47013;42.664;23.242;2022-09-21T08:17:13;94235.31;;;13.17;57.36
61128;BME280;47013;42.664;23.242;2022-09-21T08:19:38;94231.84;;;13.13;57.30
61128;BME280;47013;42.664;23.242;2022-09-21T08:22:04;94229.69;;;13.27;57.56
61128;BME280;47013;42.664;23.242;2022-09-21T08:24:30;94232.31;;;13.35;54.93
61128;BME280;47013;42.664;23.242;2022-09-21T08:26:55;94231.47;;;13.38;55.39
61128;BME280;47013;42.664;23.242;2022-09-21T08:29:22;94218.56;;;13.42;55.09
61128;BME280;47013;42.664;23.242;2022-09-21T08:31:48;94220.75;;;13.27;54.63
61128;BME280;47013;42.664;23.242;2022-09-21T08:34:13;94210.84;;;13.37;55.73
61128;BME280;47013;42.664;23.242;2022-09-21T08:36:39;94212.97;;;13.49;56.02
61128;BME280;47013;42.664;23.242;2022-09-21T08:39:05;94220.31;;;13.52;54.82
61128;BME280;47013;42.664;23.242;2022-09-21T08:49:36;94221.38;;;13.78;53.76
61128;BME280;47013;42.664;23.242;2022-09-21T08:52:08;94213.50;;;13.83;52.96
61128;BME280;47013;42.664;23.242;2022-09-21T08:57:16;94199.50;;;13.62;52.78
61128;BME280;47013;42.664;23.242;2022-09-21T08:59:46;94203.63;;;13.50;53.66
61128;BME280;47013;42.664;23.242;2022-09-21T09:04:52;94197.63;;;13.58;54.97
61128;BME280;47013;42.664;23.242;2022-09-21T09:20:33;94188.06;;;13.70;54.22
61128;BME280;47013;42.664;23.242;2022-09-21T09:25:25;94186.38;;;13.56;52.74
61128;BME280;47013;42.664;23.242;2022-09-21T09:27:54;94188.34;;;13.56;52.86
61128;BME280;47013;42.664;23.242;2022-09-21T09:30:25;94178.34;;;13.49;52.33
61128;BME280;47013;42.664;23.242;2022-09-21T09:37:51;94167.16;;;13.44;51.17
61128;BME280;47013;42.664;23.242;2022-09-21T09:40:28;94167.66;;;13.58;50.33
61128;BME280;47013;42.664;23.242;2022-09-21T09:43:06;94165.06;;;13.51;51.41
61128;BME280;47013;42.664;23.242;2022-09-21T09:45:52;94166.91;;;13.58;51.44
61128;BME280;47013;42.664;23.242;2022-09-21T09:51:11;94161.44;;;13.98;50.11
61128;BME280;47013;42.664;23.242;2022-09-21T09:53:37;94154.06;;;14.14;49.18
61128;BME280;47013;42.664;23.242;2022-09-21T09:56:02;94150.13;;;14.15;48.32
61128;BME280;47013;42.664;23.242;2022-09-21T10:00:53;94149.91;;;14.62;48.03
61128;BME280;47013;42.664;23.242;2022-09-21T10:03:20;94151.34;;;14.83;48.04
61128;BME280;47013;42.664;23.242;2022-09-21T10:05:46;94153.47;;;14.92;48.37
61128;BME280;47013;42.664;23.242;2022-09-21T10:10:55;94141.28;;;14.64;48.31
61128;BME280;47013;42.664;23.242;2022-09-21T10:15:50;94137.13;;;14.23;48.86
61128;BME280;47013;42.664;23.242;2022-09-21T10:18:33;94133.63;;;14.23;47.95
61128;BME280;47013;42.664;23.242;2022-09-21T10:21:15;94135.22;;;14.56;49.34
61128;BME280;47013;42.664;23.242;2022-09-21T10:23:45;94130.00;;;14.94;46.37
61128;BME280;47013;42.664;23.242;2022-09-21T10:26:11;94127.81;;;15.34;44.78
61128;BME280;47013;42.664;23.242;2022-09-21T10:28:38;94125.34;;;15.69;41.90
61128;BME280;47013;42.664;23.242;2022-09-21T10:31:21;94120.06;;;16.04;39.69
61128;BME280;47013;42.664;23.242;2022-09-21T10:34:33;94120.47;;;15.89;39.59
61128;BME280;47013;42.664;23.242;2022-09-21T10:36:36;94115.03;;;16.02;39.67
61128;BME280;47013;42.664;23.242;2022-09-21T10:39:10;94118.13;;;16.30;40.10
61128;BME280;47013;42.664;23.242;2022-09-21T10:41:35;94116.22;;;16.77;41.11
61128;BME280;47013;42.664;23.242;2022-09-21T10:44:01;94103.69;;;17.36;39.66
61128;BME280;47013;42.664;23.242;2022-09-21T10:46:31;94098.38;;;17.77;38.20
61128;BME280;47013;42.664;23.242;2022-09-21T10:48:57;94099.53;;;18.19;37.87
61128;BME280;47013;42.664;23.242;2022-09-21T10:51:26;94105.00;;;18.10;37.41
61128;BME280;47013;42.664;23.242;2022-09-21T10:53:53;94107.03;;;17.53;37.53
61128;BME280;47013;42.664;23.242;2022-09-21T10:56:18;94106.91;;;16.88;39.02
61128;BME280;47013;42.664;23.242;2022-09-21T10:59:30;94100.16;;;16.54;40.71
61128;BME280;47013;42.664;23.242;2022-09-21T11:01:29;94104.19;;;16.24;41.21
61128;BME280;47013;42.664;23.242;2022-09-21T11:06:21;94091.50;;;16.68;41.40
61128;BME280;47013;42.664;23.242;2022-09-21T11:08:59;94088.69;;;17.06;39.00
61128;BME280;47013;42.664;23.242;2022-09-21T11:11:44;94087.00;;;17.44;37.71
61128;BME280;47013;42.664;23.242;2022-09-21T11:24:49;94083.31;;;17.37;38.04
61128;BME280;47013;42.664;23.242;2022-09-21T11:27:20;94085.56;;;17.74;34.43
61128;BME280;47013;42.664;23.242;2022-09-21T11:45:32;94105.84;;;17.20;37.92
61128;BME280;47013;42.664;23.242;2022-09-21T11:50:33;94099.03;;;16.51;37.85
61128;BME280;47013;42.664;23.242;2022-09-21T12:11:11;94115.44;;;15.30;43.98
61128;BME280;47013;42.664;23.242;2022-09-21T12:13:49;94106.47;;;15.29;43.86
61128;BME280;47013;42.664;23.242;2022-09-21T12:16:20;94113.19;;;15.12;43.45
61128;BME280;47013;42.664;23.242;2022-09-21T12:21:25;94114.66;;;14.84;44.71
61128;BME280;47013;42.664;23.242;2022-09-21T12:23:55;94119.22;;;14.74;44.82
61128;BME280;47013;42.664;23.242;2022-09-21T12:26:23;94108.09;;;14.65;45.09
61128;BME280;47013;42.664;23.242;2022-09-21T12:28:50;94119.78;;;14.50;46.65
61128;BME280;47013;42.664;23.242;2022-09-21T12:31:19;94111.91;;;14.35;47.35
61128;BME280;47013;42.664;23.242;2022-09-21T12:33:50;94114.66;;;14.35;46.53
61128;BME280;47013;42.664;23.242;2022-09-21T12:36:20;94118.38;;;14.41;47.85
61128;BME280;47013;42.664;23.242;2022-09-21T12:46:20;94119.31;;;15.74;43.90
61128;BME280;47013;42.664;23.242;2022-09-21T12:48:46;94116.34;;;16.10;42.52
61128;BME280;47013;42.664;23.242;2022-09-21T12:54:04;94101.13;;;16.86;40.30
61128;BME280;47013;42.664;23.242;2022-09-21T12:59:20;94102.63;;;17.34;39.17
61128;BME280;47013;42.664;23.242;2022-09-21T13:02:00;94096.63;;;17.48;38.40
61128;BME280;47013;42.664;23.242;2022-09-21T13:04:38;94103.38;;;17.34;38.77
61128;BME280;47013;42.664;23.242;2022-09-21T13:09:32;94102.97;;;17.23;38.12
61128;BME280;47013;42.664;23.242;2022-09-21T13:11:59;94095.63;;;17.33;38.76
61128;BME280;47013;42.664;23.242;2022-09-21T13:14:27;94087.28;;;17.58;38.37
61128;BME280;47013;42.664;23.242;2022-09-21T13:16:56;94093.75;;;17.95;37.56
61128;BME280;47013;42.664;23.242;2022-09-21T13:19:23;94091.28;;;18.19;35.88
61128;BME280;47013;42.664;23.242;2022-09-21T13:24:36;94091.19;;;18.23;37.07
61128;BME280;47013;42.664;23.242;2022-09-21T13:27:02;94087.84;;;17.97;37.06
61128;BME280;47013;42.664;23.242;2022-09-21T13:29:32;94082.69;;;17.77;37.38
61128;BME280;47013;42.664;23.242;2022-09-21T13:34:39;94085.28;;;17.02;39.05
61128;BME280;47013;42.664;23.242;2022-09-21T13:47:39;94083.63;;;16.32;43.65
61128;BME280;47013;42.664;23.242;2022-09-21T13:52:53;94077.91;;;15.76;42.07
61128;BME280;47013;42.664;23.242;2022-09-21T13:55:38;94073.78;;;16.09;42.09
61128;BME280;47013;42.664;23.242;2022-09-21T13:58:17;94071.28;;;16.28;41.69
61128;BME280;47013;42.664;23.242;2022-09-21T14:00:53;94061.72;;;16.58;40.78
61128;BME280;47013;42.664;23.242;2022-09-21T14:03:53;94070.78;;;16.80;40.15
61128;BME280;47013;42.664;23.242;2022-09-21T14:09:01;94059.00;;;16.92;36.61
61128;BME280;47013;42.664;23.242;2022-09-21T14:11:29;94056.41;;;16.89;37.83
61128;BME280;47013;42.664;23.242;2022-09-21T14:14:03;94064.53;;;16.79;36.91
61128;BME280;47013;42.664;23.242;2022-09-21T14:18:58;94064.56;;;16.54;36.86
61128;BME280;47013;42.664;23.242;2022-09-21T14:21:24;94059.13;;;16.41;37.59
61128;BME280;47013;42.664;23.242;2022-09-21T14:31:45;94053.97;;;15.92;39.76
61128;BME280;47013;42.664;23.242;2022-09-21T14:34:14;94056.69;;;15.80;40.62
61128;BME280;47013;42.664;23.242;2022-09-21T14:36:42;94062.13;;;15.67;41.21
61128;BME280;47013;42.664;23.242;2022-09-21T14:39:16;94055.19;;;15.50;40.73
61128;BME280;47013;42.664;23.242;2022-09-21T14:41:43;94062.38;;;15.44;41.51
61128;BME280;47013;42.664;23.242;2022-09-21T14:44:21;94069.00;;;15.30;41.27
61128;BME280;47013;42.664;23.242;2022-09-21T14:46:56;94062.94;;;15.22;40.93
61128;BME280;47013;42.664;23.242;2022-09-21T14:52:02;94064.81;;;14.96;43.17
61128;BME280;47013;42.664;23.242;2022-09-21T15:02:25;94072.88;;;14.38;47.37
61128;BME280;47013;42.664;23.242;2022-09-21T15:18:01;94092.78;;;14.03;47.10
61128;BME280;47013;42.664;23.242;2022-09-21T15:20:28;94088.09;;;14.03;46.20
61128;BME280;47013;42.664;23.242;2022-09-21T15:22:56;94094.03;;;13.98;46.77
61128;BME280;47013;42.664;23.242;2022-09-21T15:25:23;94089.16;;;13.90;47.48
61128;BME280;47013;42.664;23.242;2022-09-21T15:27:49;94094.94;;;13.92;48.11
61128;BME280;47013;42.664;23.242;2022-09-21T15:30:22;94096.56;;;13.89;49.08
61128;BME280;47013;42.664;23.242;2022-09-21T15:32:52;94098.41;;;13.76;49.00
61128;BME280;47013;42.664;23.242;2022-09-21T15:35:28;94098.84;;;13.74;48.90
61128;BME280;47013;42.664;23.242;2022-09-21T15:37:55;94093.19;;;13.65;46.72
61128;BME280;47013;42.664;23.242;2022-09-21T15:40:22;94100.41;;;13.55;45.88
61128;BME280;47013;42.664;23.242;2022-09-21T15:48:01;94118.56;;;13.42;47.43
61128;BME280;47013;42.664;23.242;2022-09-21T15:50:27;94114.66;;;13.43;47.28
61128;BME280;47013;42.664;23.242;2022-09-21T15:52:54;94113.94;;;13.39;45.92
61128;BME280;47013;42.664;23.242;2022-09-21T15:55:22;94114.00;;;13.36;46.78
61128;BME280;47013;42.664;23.242;2022-09-21T15:57:48;94118.25;;;13.37;47.83
61128;BME280;47013;42.664;23.242;2022-09-21T16:02:41;94118.59;;;13.39;50.15
61128;BME280;47013;42.664;23.242;2022-09-21T16:05:12;94122.66;;;13.31;47.42
61128;BME280;47013;42.664;23.242;2022-09-21T16:07:42;94118.88;;;13.24;46.62
61128;BME280;47013;42.664;23.242;2022-09-21T16:13:03;94125.47;;;13.04;47.85
61128;BME280;47013;42.664;23.242;2022-09-21T16:16:01;94128.31;;;12.96;48.23
61128;BME280;47013;42.664;23.242;2022-09-21T16:18:40;94131.97;;;12.86;48.40
61128;BME280;47013;42.664;23.242;2022-09-21T16:23:53;94127.97;;;12.71;51.08
61128;BME280;47013;42.664;23.242;2022-09-21T16:26:27;94134.22;;;12.68;50.88
61128;BME280;47013;42.664;23.242;2022-09-21T16:28:57;94121.97;;;12.56;50.24
61128;BME280;47013;42.664;23.242;2022-09-21T16:31:39;94132.50;;;12.54;51.65
61128;BME280;47013;42.664;23.242;2022-09-21T16:34:17;94129.09;;;12.50;52.09